sensor_id;sensor_type;location;lat;lon;timestamp;temperature;humidity
23301;DHT22;11819;51.394;12.340;2023-05-29T00:02:16;16.20;68.90
23301;DHT22;11819;51.394;12.340;2023-05-29T00:04:43;16.20;69.10
23301;DHT22;11819;51.394;12.340;2023-05-29T00:07:08;16.20;69.10
23301;DHT22;11819;51.394;12.340;2023-05-29T00:09:34;16.30;69.00
23301;DHT22;11819;51.394;12.340;2023-05-29T00:11:59;16.20;69.00
23301;DHT22;11819;51.394;12.340;2023-05-29T00:14:26;16.20;69.40
23301;DHT22;11819;51.394;12.340;2023-05-29T00:16:52;16.10;69.70
23301;DHT22;11819;51.394;12.340;2023-05-29T00:19:17;16.00;70.00
23301;DHT22;11819;51.394;12.340;2023-05-29T00:21:45;16.00;70.50
23301;DHT22;11819;51.394;12.340;2023-05-29T00:24:16;16.00;70.80
23301;DHT22;11819;51.394;12.340;2023-05-29T00:26:42;16.00;71.00
23301;DHT22;11819;51.394;12.340;2023-05-29T00:29:08;16.00;71.20
23301;DHT22;11819;51.394;12.340;2023-05-29T00:31:34;16.00;71.30
23301;DHT22;11819;51.394;12.340;2023-05-29T00:34:01;16.00;71.60
23301;DHT22;11819;51.394;12.340;2023-05-29T00:36:27;16.00;71.60
23301;DHT22;11819;51.394;12.340;2023-05-29T00:38:55;15.90;71.60
23301;DHT22;11819;51.394;12.340;2023-05-29T00:41:20;15.90;71.70
23301;DHT22;11819;51.394;12.340;2023-05-29T00:43:46;15.80;71.90
23301;DHT22;11819;51.394;12.340;2023-05-29T00:46:13;15.80;72.20
23301;DHT22;11819;51.394;12.340;2023-05-29T00:48:41;15.70;72.20
23301;DHT22;11819;51.394;12.340;2023-05-29T00:51:08;15.70;72.30
23301;DHT22;11819;51.394;12.340;2023-05-29T00:53:34;15.70;72.20
23301;DHT22;11819;51.394;12.340;2023-05-29T00:56:00;15.70;72.10
23301;DHT22;11819;51.394;12.340;2023-05-29T00:58:27;15.60;72.20
23301;DHT22;11819;51.394;12.340;2023-05-29T01:00:53;15.50;72.40
23301;DHT22;11819;51.394;12.340;2023-05-29T01:03:20;15.50;72.60
23301;DHT22;11819;51.394;12.340;2023-05-29T01:05:48;15.50;72.80
23301;DHT22;11819;51.394;12.340;2023-05-29T01:08:14;15.50;72.80
23301;DHT22;11819;51.394;12.340;2023-05-29T01:10:40;15.50;72.70
23301;DHT22;11819;51.394;12.340;2023-05-29T01:13:19;15.50;72.80
23301;DHT22;11819;51.394;12.340;2023-05-29T01:16:12;15.40;72.70
23301;DHT22;11819;51.394;12.340;2023-05-29T01:19:00;15.40;72.80
23301;DHT22;11819;51.394;12.340;2023-05-29T01:27:05;15.20;73.40
23301;DHT22;11819;51.394;12.340;2023-05-29T01:29:34;15.10;73.50
23301;DHT22;11819;51.394;12.340;2023-05-29T01:32:01;15.10;73.60
23301;DHT22;11819;51.394;12.340;2023-05-29T01:34:30;15.10;73.90
23301;DHT22;11819;51.394;12.340;2023-05-29T01:36:55;15.10;74.40
23301;DHT22;11819;51.394;12.340;2023-05-29T01:39:23;14.90;75.20
23301;DHT22;11819;51.394;12.340;2023-05-29T01:41:52;14.90;75.20
23301;DHT22;11819;51.394;12.340;2023-05-29T01:44:19;14.80;75.20
23301;DHT22;11819;51.394;12.340;2023-05-29T01:46:48;14.70;75.20
23301;DHT22;11819;51.394;12.340;2023-05-29T01:49:16;14.70;75.40
23301;DHT22;11819;51.394;12.340;2023-05-29T01:51:43;14.60;75.30
23301;DHT22;11819;51.394;12.340;2023-05-29T01:54:10;14.60;75.20
23301;DHT22;11819;51.394;12.340;2023-05-29T01:56:36;14.50;75.00
23301;DHT22;11819;51.394;12.340;2023-05-29T01:59:03;14.60;75.00
23301;DHT22;11819;51.394;12.340;2023-05-29T02:01:29;14.60;74.80
23301;DHT22;11819;51.394;12.340;2023-05-29T02:03:57;14.60;74.80
23301;DHT22;11819;51.394;12.340;2023-05-29T02:06:23;14.50;74.70
23301;DHT22;11819;51.394;12.340;2023-05-29T02:08:49;14.50;74.60
23301;DHT22;11819;51.394;12.340;2023-05-29T02:11:15;14.50;74.70
23301;DHT22;11819;51.394;12.340;2023-05-29T02:13:41;14.40;74.80
23301;DHT22;11819;51.394;12.340;2023-05-29T02:16:07;14.40;74.90
23301;DHT22;11819;51.394;12.340;2023-05-29T02:18:34;14.40;75.00
23301;DHT22;11819;51.394;12.340;2023-05-29T02:21:00;14.40;75.10
23301;DHT22;11819;51.394;12.340;2023-05-29T02:23:27;14.30;75.20
23301;DHT22;11819;51.394;12.340;2023-05-29T02:25:53;14.20;75.40
23301;DHT22;11819;51.394;12.340;2023-05-29T02:28:18;14.20;75.70
23301;DHT22;11819;51.394;12.340;2023-05-29T02:30:44;14.20;75.70
23301;DHT22;11819;51.394;12.340;2023-05-29T02:33:09;14.20;75.80
23301;DHT22;11819;51.394;12.340;2023-05-29T02:35:35;14.20;75.80
23301;DHT22;11819;51.394;12.340;2023-05-29T02:38:02;14.10;76.00
23301;DHT22;11819;51.394;12.340;2023-05-29T02:40:29;14.10;76.20
23301;DHT22;11819;51.394;12.340;2023-05-29T02:42:57;14.10;76.20
23301;DHT22;11819;51.394;12.340;2023-05-29T02:45:23;14.10;76.30
23301;DHT22;11819;51.394;12.340;2023-05-29T02:47:49;14.00;76.30
23301;DHT22;11819;51.394;12.340;2023-05-29T02:50:15;14.00;75.40
23301;DHT22;11819;51.394;12.340;2023-05-29T02:52:40;13.90;74.00
23301;DHT22;11819;51.394;12.340;2023-05-29T02:55:07;13.80;74.20
23301;DHT22;11819;51.394;12.340;2023-05-29T02:57:33;13.80;74.40
23301;DHT22;11819;51.394;12.340;2023-05-29T03:00:00;13.80;74.60
23301;DHT22;11819;51.394;12.340;2023-05-29T03:02:27;13.80;74.60
23301;DHT22;11819;51.394;12.340;2023-05-29T03:04:53;13.80;74.60
23301;DHT22;11819;51.394;12.340;2023-05-29T03:07:19;13.80;74.80
23301;DHT22;11819;51.394;12.340;2023-05-29T03:09:45;13.80;74.80
23301;DHT22;11819;51.394;12.340;2023-05-29T03:12:10;13.80;74.80
23301;DHT22;11819;51.394;12.340;2023-05-29T03:14:37;13.70;74.80
23301;DHT22;11819;51.394;12.340;2023-05-29T03:17:07;13.70;75.00
23301;DHT22;11819;51.394;12.340;2023-05-29T03:19:37;13.60;75.20
23301;DHT22;11819;51.394;12.340;2023-05-29T03:22:04;13.50;75.60
23301;DHT22;11819;51.394;12.340;2023-05-29T03:24:32;13.60;76.30
23301;DHT22;11819;51.394;12.340;2023-05-29T03:27:01;13.60;76.60
23301;DHT22;11819;51.394;12.340;2023-05-29T03:29:31;13.50;77.10
23301;DHT22;11819;51.394;12.340;2023-05-29T03:31:57;13.40;78.40
23301;DHT22;11819;51.394;12.340;2023-05-29T03:34:27;13.40;78.80
23301;DHT22;11819;51.394;12.340;2023-05-29T03:36:56;13.50;78.90
23301;DHT22;11819;51.394;12.340;2023-05-29T03:39:23;13.50;78.90
23301;DHT22;11819;51.394;12.340;2023-05-29T03:41:49;13.50;79.00
23301;DHT22;11819;51.394;12.340;2023-05-29T03:44:17;13.50;79.30
23301;DHT22;11819;51.394;12.340;2023-05-29T03:46:43;13.40;79.70
23301;DHT22;11819;51.394;12.340;2023-05-29T03:49:08;13.40;80.30
23301;DHT22;11819;51.394;12.340;2023-05-29T03:51:36;13.40;80.50
23301;DHT22;11819;51.394;12.340;2023-05-29T03:54:02;13.40;80.90
23301;DHT22;11819;51.394;12.340;2023-05-29T03:56:28;13.40;81.10
23301;DHT22;11819;51.394;12.340;2023-05-29T03:58:54;13.40;81.20
23301;DHT22;11819;51.394;12.340;2023-05-29T04:01:20;13.50;81.20
23301;DHT22;11819;51.394;12.340;2023-05-29T04:03:46;13.40;81.60
23301;DHT22;11819;51.394;12.340;2023-05-29T04:06:13;13.50;81.80
23301;DHT22;11819;51.394;12.340;2023-05-29T04:08:39;13.50;82.50
23301;DHT22;11819;51.394;12.340;2023-05-29T04:11:08;13.50;81.70
23301;DHT22;11819;51.394;12.340;2023-05-29T04:13:35;13.60;81.90
23301;DHT22;11819;51.394;12.340;2023-05-29T04:16:01;13.50;82.00
23301;DHT22;11819;51.394;12.340;2023-05-29T04:18:27;13.50;82.30
23301;DHT22;11819;51.394;12.340;2023-05-29T04:20:53;13.50;82.70
23301;DHT22;11819;51.394;12.340;2023-05-29T04:23:20;13.50;82.80
23301;DHT22;11819;51.394;12.340;2023-05-29T04:25:46;13.40;83.40
23301;DHT22;11819;51.394;12.340;2023-05-29T04:28:16;13.40;84.10
23301;DHT22;11819;51.394;12.340;2023-05-29T04:30:43;13.30;84.50
23301;DHT22;11819;51.394;12.340;2023-05-29T04:33:09;13.30;84.80
23301;DHT22;11819;51.394;12.340;2023-05-29T04:35:42;13.40;85.20
23301;DHT22;11819;51.394;12.340;2023-05-29T04:38:10;13.40;85.50
23301;DHT22;11819;51.394;12.340;2023-05-29T04:40:37;13.40;85.50
23301;DHT22;11819;51.394;12.340;2023-05-29T04:43:03;13.50;86.40
23301;DHT22;11819;51.394;12.340;2023-05-29T04:45:44;13.50;86.00
23301;DHT22;11819;51.394;12.340;2023-05-29T04:48:10;13.50;86.20
23301;DHT22;11819;51.394;12.340;2023-05-29T04:50:35;13.60;87.30
23301;DHT22;11819;51.394;12.340;2023-05-29T04:53:05;13.60;86.60
23301;DHT22;11819;51.394;12.340;2023-05-29T04:55:31;13.60;86.80
23301;DHT22;11819;51.394;12.340;2023-05-29T04:57:57;13.60;87.20
23301;DHT22;11819;51.394;12.340;2023-05-29T05:00:24;13.60;87.30
23301;DHT22;11819;51.394;12.340;2023-05-29T05:02:50;13.70;87.50
23301;DHT22;11819;51.394;12.340;2023-05-29T05:05:17;13.60;87.80
23301;DHT22;11819;51.394;12.340;2023-05-29T05:07:42;13.60;88.20
23301;DHT22;11819;51.394;12.340;2023-05-29T05:10:08;13.60;88.50
23301;DHT22;11819;51.394;12.340;2023-05-29T05:12:35;13.60;88.70
23301;DHT22;11819;51.394;12.340;2023-05-29T05:15:01;13.60;88.90
23301;DHT22;11819;51.394;12.340;2023-05-29T05:17:28;13.70;89.10
23301;DHT22;11819;51.394;12.340;2023-05-29T05:19:54;13.70;89.30
23301;DHT22;11819;51.394;12.340;2023-05-29T05:22:21;13.70;89.40
23301;DHT22;11819;51.394;12.340;2023-05-29T05:24:48;13.80;89.80
23301;DHT22;11819;51.394;12.340;2023-05-29T05:27:14;13.90;89.80
23301;DHT22;11819;51.394;12.340;2023-05-29T05:29:40;13.90;90.00
23301;DHT22;11819;51.394;12.340;2023-05-29T05:32:06;14.00;90.00
23301;DHT22;11819;51.394;12.340;2023-05-29T05:34:33;14.00;90.10
23301;DHT22;11819;51.394;12.340;2023-05-29T05:36:58;14.00;90.10
23301;DHT22;11819;51.394;12.340;2023-05-29T05:39:24;14.00;90.30
23301;DHT22;11819;51.394;12.340;2023-05-29T05:41:51;14.10;90.40
23301;DHT22;11819;51.394;12.340;2023-05-29T05:44:30;14.20;90.40
23301;DHT22;11819;51.394;12.340;2023-05-29T05:47:03;14.30;90.40
23301;DHT22;11819;51.394;12.340;2023-05-29T05:49:30;14.30;90.40
23301;DHT22;11819;51.394;12.340;2023-05-29T05:51:56;14.50;90.40
23301;DHT22;11819;51.394;12.340;2023-05-29T05:54:22;14.50;90.10
23301;DHT22;11819;51.394;12.340;2023-05-29T05:56:48;14.60;90.00
23301;DHT22;11819;51.394;12.340;2023-05-29T05:59:17;14.70;89.60
23301;DHT22;11819;51.394;12.340;2023-05-29T06:01:43;14.80;89.10
23301;DHT22;11819;51.394;12.340;2023-05-29T06:04:09;14.70;89.00
23301;DHT22;11819;51.394;12.340;2023-05-29T06:06:35;14.80;88.70
23301;DHT22;11819;51.394;12.340;2023-05-29T06:09:01;14.90;88.40
23301;DHT22;11819;51.394;12.340;2023-05-29T06:11:28;15.00;87.90
23301;DHT22;11819;51.394;12.340;2023-05-29T06:13:54;15.20;87.30
23301;DHT22;11819;51.394;12.340;2023-05-29T06:16:25;15.20;87.00
23301;DHT22;11819;51.394;12.340;2023-05-29T06:18:51;15.30;86.60
23301;DHT22;11819;51.394;12.340;2023-05-29T06:21:18;15.30;86.20
23301;DHT22;11819;51.394;12.340;2023-05-29T06:23:51;15.30;86.30
23301;DHT22;11819;51.394;12.340;2023-05-29T06:26:16;15.40;86.20
23301;DHT22;11819;51.394;12.340;2023-05-29T06:28:42;15.40;86.00
23301;DHT22;11819;51.394;12.340;2023-05-29T06:31:07;15.40;86.10
23301;DHT22;11819;51.394;12.340;2023-05-29T06:33:33;15.40;86.20
23301;DHT22;11819;51.394;12.340;2023-05-29T06:35:59;15.50;86.40
23301;DHT22;11819;51.394;12.340;2023-05-29T06:38:25;15.50;86.30
23301;DHT22;11819;51.394;12.340;2023-05-29T06:40:51;15.60;86.20
23301;DHT22;11819;51.394;12.340;2023-05-29T06:43:17;15.60;86.00
23301;DHT22;11819;51.394;12.340;2023-05-29T06:45:46;15.60;86.80
23301;DHT22;11819;51.394;12.340;2023-05-29T06:48:13;15.60;86.20
23301;DHT22;11819;51.394;12.340;2023-05-29T06:50:41;15.70;86.10
23301;DHT22;11819;51.394;12.340;2023-05-29T06:53:36;15.80;85.50
23301;DHT22;11819;51.394;12.340;2023-05-29T06:56:01;15.80;85.10
23301;DHT22;11819;51.394;12.340;2023-05-29T06:58:29;16.00;84.40
23301;DHT22;11819;51.394;12.340;2023-05-29T07:00:56;16.10;83.10
23301;DHT22;11819;51.394;12.340;2023-05-29T07:03:30;16.10;82.40
23301;DHT22;11819;51.394;12.340;2023-05-29T07:05:55;16.20;82.10
23301;DHT22;11819;51.394;12.340;2023-05-29T07:08:22;16.30;81.40
23301;DHT22;11819;51.394;12.340;2023-05-29T07:10:50;16.30;81.10
23301;DHT22;11819;51.394;12.340;2023-05-29T07:13:19;16.40;81.20
23301;DHT22;11819;51.394;12.340;2023-05-29T07:15:45;16.40;80.90
23301;DHT22;11819;51.394;12.340;2023-05-29T07:18:12;16.50;80.50
23301;DHT22;11819;51.394;12.340;2023-05-29T07:20:38;16.50;80.30
23301;DHT22;11819;51.394;12.340;2023-05-29T07:23:04;16.50;80.20
23301;DHT22;11819;51.394;12.340;2023-05-29T07:25:32;16.60;80.20
23301;DHT22;11819;51.394;12.340;2023-05-29T07:27:58;16.70;79.80
23301;DHT22;11819;51.394;12.340;2023-05-29T07:30:24;16.70;79.20
23301;DHT22;11819;51.394;12.340;2023-05-29T07:32:52;16.80;79.20
23301;DHT22;11819;51.394;12.340;2023-05-29T07:35:19;16.90;78.90
23301;DHT22;11819;51.394;12.340;2023-05-29T07:37:48;16.90;78.30
23301;DHT22;11819;51.394;12.340;2023-05-29T07:40:15;17.00;78.10
23301;DHT22;11819;51.394;12.340;2023-05-29T07:42:59;17.10;77.90
23301;DHT22;11819;51.394;12.340;2023-05-29T07:45:36;17.20;77.40
23301;DHT22;11819;51.394;12.340;2023-05-29T07:48:02;17.20;77.20
23301;DHT22;11819;51.394;12.340;2023-05-29T07:50:29;17.30;77.00
23301;DHT22;11819;51.394;12.340;2023-05-29T07:52:55;17.40;75.50
23301;DHT22;11819;51.394;12.340;2023-05-29T07:55:22;17.40;74.60
23301;DHT22;11819;51.394;12.340;2023-05-29T07:57:47;17.50;74.00
23301;DHT22;11819;51.394;12.340;2023-05-29T08:00:15;17.50;73.60
23301;DHT22;11819;51.394;12.340;2023-05-29T08:02:47;17.60;73.60
23301;DHT22;11819;51.394;12.340;2023-05-29T08:05:38;17.60;73.40
23301;DHT22;11819;51.394;12.340;2023-05-29T08:08:10;17.70;73.20
23301;DHT22;11819;51.394;12.340;2023-05-29T08:10:40;17.80;72.80
23301;DHT22;11819;51.394;12.340;2023-05-29T08:13:05;17.80;72.20
23301;DHT22;11819;51.394;12.340;2023-05-29T08:15:33;17.90;71.50
23301;DHT22;11819;51.394;12.340;2023-05-29T08:17:59;18.00;71.30
23301;DHT22;11819;51.394;12.340;2023-05-29T08:20:27;18.10;71.20
23301;DHT22;11819;51.394;12.340;2023-05-29T08:22:53;18.20;71.60
23301;DHT22;11819;51.394;12.340;2023-05-29T08:25:19;18.20;70.60
23301;DHT22;11819;51.394;12.340;2023-05-29T08:27:47;18.30;70.00
23301;DHT22;11819;51.394;12.340;2023-05-29T08:30:13;18.30;69.50
23301;DHT22;11819;51.394;12.340;2023-05-29T08:32:40;18.40;70.10
23301;DHT22;11819;51.394;12.340;2023-05-29T08:35:05;18.50;70.20
23301;DHT22;11819;51.394;12.340;2023-05-29T08:37:32;18.60;69.90
23301;DHT22;11819;51.394;12.340;2023-05-29T08:39:58;18.80;69.30
23301;DHT22;11819;51.394;12.340;2023-05-29T08:42:29;18.90;68.60
23301;DHT22;11819;51.394;12.340;2023-05-29T08:45:02;19.00;67.70
23301;DHT22;11819;51.394;12.340;2023-05-29T08:47:33;19.10;67.60
23301;DHT22;11819;51.394;12.340;2023-05-29T08:50:00;19.20;67.30
23301;DHT22;11819;51.394;12.340;2023-05-29T08:52:29;19.30;66.80
23301;DHT22;11819;51.394;12.340;2023-05-29T08:54:59;19.40;66.70
23301;DHT22;11819;51.394;12.340;2023-05-29T08:57:29;19.50;66.20
23301;DHT22;11819;51.394;12.340;2023-05-29T08:59:55;19.60;65.50
23301;DHT22;11819;51.394;12.340;2023-05-29T09:02:21;19.70;65.50
23301;DHT22;11819;51.394;12.340;2023-05-29T09:04:47;19.80;64.60
23301;DHT22;11819;51.394;12.340;2023-05-29T09:07:18;19.80;64.30
23301;DHT22;11819;51.394;12.340;2023-05-29T09:09:46;19.90;64.70
23301;DHT22;11819;51.394;12.340;2023-05-29T09:12:12;20.00;65.10
23301;DHT22;11819;51.394;12.340;2023-05-29T09:14:39;20.10;65.10
23301;DHT22;11819;51.394;12.340;2023-05-29T09:17:07;20.10;64.70
23301;DHT22;11819;51.394;12.340;2023-05-29T09:19:34;20.30;64.40
23301;DHT22;11819;51.394;12.340;2023-05-29T09:22:09;20.40;63.60
23301;DHT22;11819;51.394;12.340;2023-05-29T09:24:37;20.50;63.30
23301;DHT22;11819;51.394;12.340;2023-05-29T09:27:05;20.50;62.80
23301;DHT22;11819;51.394;12.340;2023-05-29T09:29:33;20.60;62.00
23301;DHT22;11819;51.394;12.340;2023-05-29T09:32:15;20.60;61.30
23301;DHT22;11819;51.394;12.340;2023-05-29T09:34:42;20.60;59.90
23301;DHT22;11819;51.394;12.340;2023-05-29T09:37:10;20.60;61.30
23301;DHT22;11819;51.394;12.340;2023-05-29T09:39:51;20.60;61.20
23301;DHT22;11819;51.394;12.340;2023-05-29T09:42:20;20.60;60.30
23301;DHT22;11819;51.394;12.340;2023-05-29T09:44:48;20.60;59.80
23301;DHT22;11819;51.394;12.340;2023-05-29T09:47:18;20.70;60.30
23301;DHT22;11819;51.394;12.340;2023-05-29T09:49:45;20.70;60.10
23301;DHT22;11819;51.394;12.340;2023-05-29T09:52:13;20.80;59.90
23301;DHT22;11819;51.394;12.340;2023-05-29T09:54:42;20.80;59.40
23301;DHT22;11819;51.394;12.340;2023-05-29T09:57:16;20.90;59.30
23301;DHT22;11819;51.394;12.340;2023-05-29T09:59:46;20.90;59.10
23301;DHT22;11819;51.394;12.340;2023-05-29T10:02:16;21.00;59.20
23301;DHT22;11819;51.394;12.340;2023-05-29T10:04:42;21.10;58.40
23301;DHT22;11819;51.394;12.340;2023-05-29T10:07:15;21.10;57.10
23301;DHT22;11819;51.394;12.340;2023-05-29T10:09:47;21.20;57.20
23301;DHT22;11819;51.394;12.340;2023-05-29T10:12:19;21.20;57.10
23301;DHT22;11819;51.394;12.340;2023-05-29T10:14:49;21.10;56.90
23301;DHT22;11819;51.394;12.340;2023-05-29T10:17:15;21.10;57.50
23301;DHT22;11819;51.394;12.340;2023-05-29T10:19:45;21.10;57.40
23301;DHT22;11819;51.394;12.340;2023-05-29T10:22:13;21.10;56.90
23301;DHT22;11819;51.394;12.340;2023-05-29T10:24:39;21.10;57.90
23301;DHT22;11819;51.394;12.340;2023-05-29T10:27:05;21.20;57.50
23301;DHT22;11819;51.394;12.340;2023-05-29T10:29:42;21.30;57.10
23301;DHT22;11819;51.394;12.340;2023-05-29T10:32:23;21.40;57.10
23301;DHT22;11819;51.394;12.340;2023-05-29T10:35:06;21.50;57.40
23301;DHT22;11819;51.394;12.340;2023-05-29T10:37:42;21.60;57.30
23301;DHT22;11819;51.394;12.340;2023-05-29T10:40:10;21.80;57.20
23301;DHT22;11819;51.394;12.340;2023-05-29T10:42:48;21.80;55.60
23301;DHT22;11819;51.394;12.340;2023-05-29T10:53:02;22.10;54.40
23301;DHT22;11819;51.394;12.340;2023-05-29T10:55:34;22.20;54.60
23301;DHT22;11819;51.394;12.340;2023-05-29T10:58:17;22.40;54.70
23301;DHT22;11819;51.394;12.340;2023-05-29T11:00:45;22.50;54.30
23301;DHT22;11819;51.394;12.340;2023-05-29T11:03:14;22.60;54.60
23301;DHT22;11819;51.394;12.340;2023-05-29T11:06:01;22.70;54.80
23301;DHT22;11819;51.394;12.340;2023-05-29T11:08:43;22.90;53.70
23301;DHT22;11819;51.394;12.340;2023-05-29T11:11:15;23.00;53.00
23301;DHT22;11819;51.394;12.340;2023-05-29T11:14:01;23.00;53.10
23301;DHT22;11819;51.394;12.340;2023-05-29T11:18:58;23.10;53.20
23301;DHT22;11819;51.394;12.340;2023-05-29T11:22:27;23.20;52.80
23301;DHT22;11819;51.394;12.340;2023-05-29T11:24:25;23.30;52.30
23301;DHT22;11819;51.394;12.340;2023-05-29T11:26:53;23.40;52.00
23301;DHT22;11819;51.394;12.340;2023-05-29T11:29:24;23.50;51.80
23301;DHT22;11819;51.394;12.340;2023-05-29T11:32:02;23.50;51.30
23301;DHT22;11819;51.394;12.340;2023-05-29T11:34:29;23.60;51.70
23301;DHT22;11819;51.394;12.340;2023-05-29T11:36:58;23.70;51.00
23301;DHT22;11819;51.394;12.340;2023-05-29T11:39:45;23.70;51.20
23301;DHT22;11819;51.394;12.340;2023-05-29T11:42:11;23.70;51.20
23301;DHT22;11819;51.394;12.340;2023-05-29T11:44:37;23.90;51.40
23301;DHT22;11819;51.394;12.340;2023-05-29T11:47:04;24.10;50.40
23301;DHT22;11819;51.394;12.340;2023-05-29T11:49:31;24.20;49.80
23301;DHT22;11819;51.394;12.340;2023-05-29T11:52:13;24.40;49.80
23301;DHT22;11819;51.394;12.340;2023-05-29T11:54:39;24.60;49.30
23301;DHT22;11819;51.394;12.340;2023-05-29T11:57:19;24.70;49.10
23301;DHT22;11819;51.394;12.340;2023-05-29T11:59:46;24.70;49.30
23301;DHT22;11819;51.394;12.340;2023-05-29T12:02:12;24.80;48.60
23301;DHT22;11819;51.394;12.340;2023-05-29T12:04:38;24.90;47.80
23301;DHT22;11819;51.394;12.340;2023-05-29T12:07:17;24.80;47.10
23301;DHT22;11819;51.394;12.340;2023-05-29T12:09:43;24.80;47.90
23301;DHT22;11819;51.394;12.340;2023-05-29T12:12:09;24.90;47.80
23301;DHT22;11819;51.394;12.340;2023-05-29T12:14:34;25.10;47.20
23301;DHT22;11819;51.394;12.340;2023-05-29T12:17:03;25.30;46.50
23301;DHT22;11819;51.394;12.340;2023-05-29T12:19:30;25.40;46.30
23301;DHT22;11819;51.394;12.340;2023-05-29T12:21:56;25.60;46.40
23301;DHT22;11819;51.394;12.340;2023-05-29T12:24:22;25.80;46.00
23301;DHT22;11819;51.394;12.340;2023-05-29T12:26:48;26.00;46.00
23301;DHT22;11819;51.394;12.340;2023-05-29T12:29:48;26.20;46.80
23301;DHT22;11819;51.394;12.340;2023-05-29T12:32:13;26.30;45.70
23301;DHT22;11819;51.394;12.340;2023-05-29T12:34:39;26.30;45.50
23301;DHT22;11819;51.394;12.340;2023-05-29T12:37:09;26.20;46.00
23301;DHT22;11819;51.394;12.340;2023-05-29T12:43:02;26.80;44.40
23301;DHT22;11819;51.394;12.340;2023-05-29T12:45:30;27.00;43.60
23301;DHT22;11819;51.394;12.340;2023-05-29T12:47:58;27.10;43.20
23301;DHT22;11819;51.394;12.340;2023-05-29T12:50:45;26.80;43.70
23301;DHT22;11819;51.394;12.340;2023-05-29T12:53:15;26.40;45.50
23301;DHT22;11819;51.394;12.340;2023-05-29T12:55:43;26.30;46.10
23301;DHT22;11819;51.394;12.340;2023-05-29T12:58:10;26.30;45.60
23301;DHT22;11819;51.394;12.340;2023-05-29T13:00:37;26.20;45.60
23301;DHT22;11819;51.394;12.340;2023-05-29T13:03:06;26.10;45.70
23301;DHT22;11819;51.394;12.340;2023-05-29T13:05:32;26.20;45.40
23301;DHT22;11819;51.394;12.340;2023-05-29T13:07:59;26.40;45.60
23301;DHT22;11819;51.394;12.340;2023-05-29T13:10:57;26.60;44.90
23301;DHT22;11819;51.394;12.340;2023-05-29T13:13:22;26.70;45.50
23301;DHT22;11819;51.394;12.340;2023-05-29T13:15:48;27.00;45.20
23301;DHT22;11819;51.394;12.340;2023-05-29T13:18:15;27.20;43.70
23301;DHT22;11819;51.394;12.340;2023-05-29T13:20:40;27.20;43.70
23301;DHT22;11819;51.394;12.340;2023-05-29T13:23:06;27.20;43.80
23301;DHT22;11819;51.394;12.340;2023-05-29T13:25:34;27.20;43.70
23301;DHT22;11819;51.394;12.340;2023-05-29T13:27:59;27.30;45.70
23301;DHT22;11819;51.394;12.340;2023-05-29T13:30:25;27.50;44.70
23301;DHT22;11819;51.394;12.340;2023-05-29T13:32:52;27.70;43.60
23301;DHT22;11819;51.394;12.340;2023-05-29T13:35:18;27.80;42.30
23301;DHT22;11819;51.394;12.340;2023-05-29T13:37:43;27.90;42.30
23301;DHT22;11819;51.394;12.340;2023-05-29T13:40:10;27.80;42.50
23301;DHT22;11819;51.394;12.340;2023-05-29T13:42:36;27.70;42.90
23301;DHT22;11819;51.394;12.340;2023-05-29T13:45:04;27.80;43.10
23301;DHT22;11819;51.394;12.340;2023-05-29T13:47:33;27.70;42.10
23301;DHT22;11819;51.394;12.340;2023-05-29T13:49:59;27.60;43.00
23301;DHT22;11819;51.394;12.340;2023-05-29T13:52:26;27.70;42.90
23301;DHT22;11819;51.394;12.340;2023-05-29T13:54:51;27.90;43.00
23301;DHT22;11819;51.394;12.340;2023-05-29T13:57:17;28.00;42.20
23301;DHT22;11819;51.394;12.340;2023-05-29T13:59:43;28.00;42.80
23301;DHT22;11819;51.394;12.340;2023-05-29T14:02:09;28.00;43.00
23301;DHT22;11819;51.394;12.340;2023-05-29T14:07:48;28.30;43.00
23301;DHT22;11819;51.394;12.340;2023-05-29T14:10:14;28.50;42.20
23301;DHT22;11819;51.394;12.340;2023-05-29T14:12:40;28.30;41.70
23301;DHT22;11819;51.394;12.340;2023-05-29T14:15:07;28.10;41.90
23301;DHT22;11819;51.394;12.340;2023-05-29T14:17:32;27.90;41.80
23301;DHT22;11819;51.394;12.340;2023-05-29T14:19:59;27.90;43.20
23301;DHT22;11819;51.394;12.340;2023-05-29T14:22:29;27.90;43.60
23301;DHT22;11819;51.394;12.340;2023-05-29T14:24:55;27.80;43.80
23301;DHT22;11819;51.394;12.340;2023-05-29T14:27:21;27.70;43.40
23301;DHT22;11819;51.394;12.340;2023-05-29T14:29:46;27.60;43.60
23301;DHT22;11819;51.394;12.340;2023-05-29T14:32:17;27.70;44.10
23301;DHT22;11819;51.394;12.340;2023-05-29T14:34:42;27.90;43.80
23301;DHT22;11819;51.394;12.340;2023-05-29T14:37:09;28.00;43.20
23301;DHT22;11819;51.394;12.340;2023-05-29T14:39:34;28.10;43.30
23301;DHT22;11819;51.394;12.340;2023-05-29T14:42:00;28.40;43.40
23301;DHT22;11819;51.394;12.340;2023-05-29T14:44:27;28.50;42.20
23301;DHT22;11819;51.394;12.340;2023-05-29T14:47:01;28.60;42.00
23301;DHT22;11819;51.394;12.340;2023-05-29T14:49:29;28.70;42.10
23301;DHT22;11819;51.394;12.340;2023-05-29T14:51:59;28.70;41.30
23301;DHT22;11819;51.394;12.340;2023-05-29T14:54:35;28.70;41.80
23301;DHT22;11819;51.394;12.340;2023-05-29T14:57:00;28.70;41.70
23301;DHT22;11819;51.394;12.340;2023-05-29T14:59:26;28.80;42.50
23301;DHT22;11819;51.394;12.340;2023-05-29T15:01:51;28.70;42.70
23301;DHT22;11819;51.394;12.340;2023-05-29T15:04:19;28.70;41.90
23301;DHT22;11819;51.394;12.340;2023-05-29T15:06:44;28.60;42.00
23301;DHT22;11819;51.394;12.340;2023-05-29T15:09:10;28.30;42.50
23301;DHT22;11819;51.394;12.340;2023-05-29T15:11:45;28.00;43.30
23301;DHT22;11819;51.394;12.340;2023-05-29T15:14:11;27.90;43.30
23301;DHT22;11819;51.394;12.340;2023-05-29T15:16:36;27.80;43.90
23301;DHT22;11819;51.394;12.340;2023-05-29T15:19:02;27.80;43.80
23301;DHT22;11819;51.394;12.340;2023-05-29T15:21:27;27.80;43.40
23301;DHT22;11819;51.394;12.340;2023-05-29T15:23:53;27.70;43.60
23301;DHT22;11819;51.394;12.340;2023-05-29T15:26:18;27.60;44.40
23301;DHT22;11819;51.394;12.340;2023-05-29T15:28:44;27.60;44.60
23301;DHT22;11819;51.394;12.340;2023-05-29T15:31:14;27.60;43.80
23301;DHT22;11819;51.394;12.340;2023-05-29T15:33:40;27.50;44.00
23301;DHT22;11819;51.394;12.340;2023-05-29T15:36:06;27.40;43.80
23301;DHT22;11819;51.394;12.340;2023-05-29T15:38:32;27.50;44.10
23301;DHT22;11819;51.394;12.340;2023-05-29T15:40:59;27.40;43.60
23301;DHT22;11819;51.394;12.340;2023-05-29T15:43:25;27.40;44.00
23301;DHT22;11819;51.394;12.340;2023-05-29T15:45:51;27.30;43.60